Poulsbo, WA

8:38 AM PDT on April 27, 2017 (GMT -0700)
Central Market Poulsbo | | Change Station

Elev 68 ft 47.75 °N, 122.64 °W | Updated 1 second ago

Partly Cloudy
Partly Cloudy
42.7 °F
Feels Like 43 °F
N
3.0
Wind Variable Wind from SW
Gusts 5.0 mph

Today
High -- | Low -- °F
--% Chance of Precip.
Yesterday
High -- | Low -- °F
Precip. -- in
Pressure 30.07 in
Visibility 10.0 miles
Clouds Overcast 4200 ft
Windchill 43 °F
Dew Point 41 °F
Humidity 95%
Rainfall 0.00 in
Snow Depth Not available.
5:59 AM 8:18 PM
New Moon, 2% visible
METAR KPAE 271453Z 15008KT 10SM OVC042 06/04 A3006 RMK AO2 SLP183 T00610044 53010
Pressure 30.07 in
Visibility 10.0 miles
Clouds Overcast 4200 ft
Windchill 43 °F
Dew Point 41 °F
Humidity 95%
Rainfall 0.00 in
Snow Depth Not available.
5:59 AM 8:18 PM
New Moon, 2% visible
METAR KPAE 271453Z 15008KT 10SM OVC042 06/04 A3006 RMK AO2 SLP183 T00610044 53010

Get Severe Weather Alerts

Thanks for signing up!

Be on the lookout for a verification email in your inbox.

You'll start receiving the daily forecast at 8 AM.

×

10-Day Weather Forecast

Almanac

Astronomy

Apr. 27, 2017 Rise Set
Actual Time
Civil Twilight
Nautical Twilight
Astronomical Twilight
Moon
Length of Visible Light
Length of Day
Tomorrow will be .
, % of the Moon is Illuminated

Today's Extremes

State Highs State Lows

Community

WunderPhotos

WunderBlog® & News

Nearby

Air Quality

  Air Quality AQ Index Pollutant
Not available.

Snow Depth

Station Depth Elevation

Earthquake Activity

City Distance Mag. Time & Date
Minimum magnitude displayed is 2.5.

Coastal Water Temperatures

Place Temperature

Stations

Nearby Weather Stations

Station Location Temp. Windchill Dew Point Humidity Wind Precip. Elev Updated Type
                   

Watches & Warnings

There are currently no watches in effect.